Ayrshire, Indiana
Current Conditions -  °F | °C
As of 2:35 PM on Tuesday 21 Oct 2014 (Local Time) from KHNB Reporting Station
Overcast Overcast  
Wind Chill: 61°   Ceiling: 4800
Heat Index: 61°   Visibility: 10mi
Dew Point: 43°   Wind: 9mph
Humidity: 52%   Direction: 30°NNE
Pressure: 30.09"   Gusts: NA
Location:  38.3488°N, 87.2217°W
Report Text: KHNB 211935Z AUTO 03008KT 10SM BKN048 OVC050 16/06 A3009 RMK AO1
Loading
Personal Weather Stations






























Interactive Weather Map
Tropical Storm Tracking
New forecast layout! Learn more

10-Day Weather Forecast

Advertisements
Track Severe Weather on mobile